createdAt,value
2017-08-04T00:00:13.253Z,929.42
2017-08-04T00:00:26.702Z,929.42
2017-08-04T00:00:40.131Z,929.44
2017-08-04T00:00:53.068Z,929.46
2017-08-04T00:01:06.543Z,929.44
2017-08-04T00:01:20.081Z,929.44
2017-08-04T00:01:33.505Z,929.45
2017-08-04T00:01:47.211Z,929.45
2017-08-04T00:02:00.633Z,929.43
2017-08-04T00:02:14.100Z,929.41
2017-08-04T00:02:27.521Z,929.43
2017-08-04T00:02:40.443Z,929.42
2017-08-04T00:02:53.936Z,929.41
2017-08-04T00:03:07.455Z,929.44
2017-08-04T00:03:20.929Z,929.44
2017-08-04T00:03:34.360Z,929.44
2017-08-04T00:03:47.841Z,929.48
2017-08-04T00:04:00.752Z,929.42
2017-08-04T00:04:13.746Z,929.45
2017-08-04T00:04:27.275Z,929.45
2017-08-04T00:04:40.169Z,929.43
2017-08-04T00:04:53.599Z,929.47
2017-08-04T00:05:07.014Z,929.45
2017-08-04T00:05:20.476Z,929.47
2017-08-04T00:05:33.950Z,929.47
2017-08-04T00:05:47.412Z,929.5
2017-08-04T00:06:00.337Z,929.48
2017-08-04T00:06:13.811Z,929.54
2017-08-04T00:06:26.708Z,929.48
2017-08-04T00:06:40.170Z,929.5
2017-08-04T00:06:53.685Z,929.51
2017-08-04T00:07:06.575Z,929.5
2017-08-04T00:07:18.961Z,929.52
2017-08-04T00:07:31.412Z,929.52
2017-08-04T00:07:44.869Z,929.57
2017-08-04T00:07:58.317Z,929.52
2017-08-04T00:08:11.804Z,929.54
2017-08-04T00:08:25.253Z,929.55
2017-08-04T00:08:38.749Z,929.58
2017-08-04T00:08:52.214Z,929.59
2017-08-04T00:09:05.708Z,929.58
2017-08-04T00:09:18.597Z,929.6
2017-08-04T00:09:32.328Z,929.57
2017-08-04T00:09:45.797Z,929.57
2017-08-04T00:09:58.689Z,929.63
2017-08-04T00:10:12.049Z,929.58
2017-08-04T00:10:25.492Z,929.62
2017-08-04T00:10:38.484Z,929.61
2017-08-04T00:10:51.453Z,929.64
2017-08-04T00:11:03.912Z,929.6
2017-08-04T00:11:16.789Z,929.62
2017-08-04T00:11:29.679Z,929.63
2017-08-04T00:11:42.128Z,929.68
2017-08-04T00:11:55.057Z,929.66
2017-08-04T00:12:08.459Z,929.65
2017-08-04T00:12:21.928Z,929.67
2017-08-04T00:12:35.349Z,929.65
2017-08-04T00:12:48.764Z,929.66
2017-08-04T00:13:02.165Z,929.62
2017-08-04T00:13:15.600Z,929.64
2017-08-04T00:13:29.048Z,929.65
2017-08-04T00:13:41.915Z,929.66
2017-08-04T00:13:55.306Z,929.63
2017-08-04T00:14:08.238Z,929.66
2017-08-04T00:14:21.180Z,929.64
2017-08-04T00:14:34.657Z,929.67
2017-08-04T00:14:48.109Z,929.67
2017-08-04T00:15:01.610Z,929.69
2017-08-04T00:15:15.075Z,929.69
2017-08-04T00:15:28.529Z,929.64
2017-08-04T00:15:41.465Z,929.7
2017-08-04T00:15:54.954Z,929.68
2017-08-04T00:16:07.899Z,929.7
2017-08-04T00:16:20.826Z,929.68
2017-08-04T00:16:33.739Z,929.72
2017-08-04T00:16:47.966Z,929.71
2017-08-04T00:17:01.361Z,929.73
2017-08-04T00:17:14.771Z,929.72
2017-08-04T00:17:28.215Z,929.74
2017-08-04T00:17:41.876Z,929.75
2017-08-04T00:17:55.309Z,929.78
2017-08-04T00:18:07.764Z,929.78
2017-08-04T00:18:20.658Z,929.74
2017-08-04T00:18:34.038Z,929.82
2017-08-04T00:18:47.486Z,929.83
2017-08-04T00:19:00.954Z,929.78
2017-08-04T00:19:15.855Z,929.8
2017-08-04T00:19:28.838Z,929.84
2017-08-04T00:19:41.733Z,929.83
2017-08-04T00:19:55.192Z,929.82
2017-08-04T00:20:08.644Z,929.84
2017-08-04T00:20:21.633Z,929.83
2017-08-04T00:20:35.148Z,929.84
2017-08-04T00:20:48.131Z,929.84
2017-08-04T00:21:01.605Z,929.87
2017-08-04T00:21:15.063Z,929.89
2017-08-04T00:21:28.509Z,929.86
2017-08-04T00:21:41.982Z,929.91
2017-08-04T00:21:55.755Z,929.89
2017-08-04T00:22:09.203Z,929.89
2017-08-04T00:22:22.633Z,929.89
2017-08-04T00:22:36.073Z,929.92
2017-08-04T00:22:49.556Z,929.9
2017-08-04T00:23:03.019Z,929.9
2017-08-04T00:23:15.963Z,929.89
2017-08-04T00:23:28.838Z,929.85
2017-08-04T00:23:42.309Z,929.87
2017-08-04T00:23:55.246Z,929.84
2017-08-04T00:24:08.170Z,929.86
2017-08-04T00:24:21.702Z,929.86
2017-08-04T00:24:35.196Z,929.88
2017-08-04T00:24:48.156Z,929.82
2017-08-04T00:25:01.566Z,929.82
2017-08-04T00:25:15.007Z,929.84
2017-08-04T00:25:28.500Z,929.84
2017-08-04T00:25:41.989Z,929.84
2017-08-04T00:25:54.945Z,929.83
2017-08-04T00:26:07.420Z,929.87
2017-08-04T00:26:20.889Z,929.88
2017-08-04T00:26:34.348Z,929.85
2017-08-04T00:26:47.882Z,929.88
2017-08-04T00:27:01.565Z,929.87
2017-08-04T00:27:14.485Z,929.87
2017-08-04T00:27:27.972Z,929.88
2017-08-04T00:27:40.852Z,929.9
2017-08-04T00:27:54.303Z,929.9
2017-08-04T00:28:07.714Z,929.9
2017-08-04T00:28:21.212Z,929.91
2017-08-04T00:28:34.150Z,929.9
2017-08-04T00:28:47.609Z,929.89
2017-08-04T00:29:01.076Z,929.93
2017-08-04T00:29:14.521Z,929.92
2017-08-04T00:29:28.053Z,929.92
2017-08-04T00:29:41.513Z,929.91
2017-08-04T00:29:53.953Z,929.91
2017-08-04T00:30:07.406Z,929.93
2017-08-04T00:30:19.797Z,929.93
2017-08-04T00:30:32.167Z,929.93
2017-08-04T00:30:45.551Z,929.91
2017-08-04T00:30:58.970Z,929.9
2017-08-04T00:31:12.382Z,929.89
2017-08-04T00:31:24.797Z,929.89
2017-08-04T00:31:38.237Z,929.93
2017-08-04T00:31:51.237Z,929.9
2017-08-04T00:32:04.316Z,929.89
2017-08-04T00:32:17.711Z,929.91
2017-08-04T00:32:30.643Z,929.91
2017-08-04T00:32:44.013Z,929.9
2017-08-04T00:32:57.471Z,929.93
2017-08-04T00:33:10.402Z,929.97
2017-08-04T00:33:23.304Z,929.95
2017-08-04T00:33:36.213Z,929.95
2017-08-04T00:33:49.729Z,929.93
2017-08-04T00:34:03.186Z,929.94
2017-08-04T00:34:16.165Z,929.97
2017-08-04T00:34:29.557Z,929.96
2017-08-04T00:34:43.039Z,929.97
2017-08-04T00:34:56.489Z,929.96
2017-08-04T00:35:09.911Z,929.96
2017-08-04T00:35:23.413Z,929.94
2017-08-04T00:35:36.888Z,929.95
2017-08-04T00:35:50.557Z,929.95
2017-08-04T00:36:03.475Z,929.97
2017-08-04T00:36:16.396Z,929.97
2017-08-04T00:36:29.302Z,930
2017-08-04T00:36:42.209Z,930
2017-08-04T00:36:55.678Z,930.02
2017-08-04T00:37:09.093Z,929.98
2017-08-04T00:37:22.525Z,929.97
2017-08-04T00:37:35.980Z,929.97
2017-08-04T00:37:48.888Z,930.01
2017-08-04T00:38:01.850Z,930.04
2017-08-04T00:38:15.263Z,930.02
2017-08-04T00:38:28.177Z,929.99
2017-08-04T00:38:41.639Z,930.03
2017-08-04T00:38:55.056Z,930.03
2017-08-04T00:39:08.562Z,930.02
2017-08-04T00:39:21.450Z,930.02
2017-08-04T00:39:34.389Z,930.03
2017-08-04T00:39:47.804Z,930.03
2017-08-04T00:40:00.690Z,930.05
2017-08-04T00:40:14.159Z,930.01
2017-08-04T00:40:31.104Z,930.04
2017-08-04T00:40:44.527Z,930.07
2017-08-04T00:40:57.939Z,930.02
2017-08-04T00:41:11.351Z,930.08
2017-08-04T00:41:24.802Z,930.03
2017-08-04T00:41:37.783Z,930.09
2017-08-04T00:41:51.200Z,930.07
2017-08-04T00:42:04.146Z,930.1
2017-08-04T00:42:16.552Z,930.07
2017-08-04T00:42:30.056Z,930.11
2017-08-04T00:42:43.515Z,930.1
2017-08-04T00:42:56.994Z,930.12
2017-08-04T00:43:10.516Z,930.09
2017-08-04T00:43:22.898Z,930.04
2017-08-04T00:43:35.859Z,930.05
2017-08-04T00:43:49.299Z,930.07
2017-08-04T00:44:02.758Z,930.09
2017-08-04T00:44:15.141Z,930.08
2017-08-04T00:44:28.621Z,930.11
2017-08-04T00:44:42.319Z,930.09
2017-08-04T00:44:55.770Z,930.1
2017-08-04T00:45:08.659Z,930.11
2017-08-04T00:45:22.121Z,930.09
2017-08-04T00:45:35.601Z,930.11
2017-08-04T00:45:48.978Z,930.11
2017-08-04T00:46:02.437Z,930.14
2017-08-04T00:46:15.351Z,930.09
2017-08-04T00:46:28.796Z,930.11
2017-08-04T00:46:41.732Z,930.09
2017-08-04T00:46:55.172Z,930.12
2017-08-04T00:47:09.395Z,930.13
2017-08-04T00:47:22.863Z,930.11
2017-08-04T00:47:35.781Z,930.1
2017-08-04T00:47:48.649Z,930.14
2017-08-04T00:48:02.079Z,930.11
2017-08-04T00:48:15.047Z,930.16
2017-08-04T00:48:28.544Z,930.14
2017-08-04T00:48:42.025Z,930.12
2017-08-04T00:48:55.504Z,930.12
2017-08-04T00:49:08.472Z,930.12
2017-08-04T00:49:21.967Z,930.1
2017-08-04T00:49:34.859Z,930.09
2017-08-04T00:49:47.772Z,930.14
2017-08-04T00:50:01.219Z,930.11
2017-08-04T00:50:14.655Z,930.11
2017-08-04T00:50:28.092Z,930.07
2017-08-04T00:50:41.621Z,930.11
2017-08-04T00:50:55.044Z,930.13
2017-08-04T00:51:08.476Z,930.1
2017-08-04T00:51:21.911Z,930.12
2017-08-04T00:51:35.400Z,930.14
2017-08-04T00:51:48.834Z,930.11
2017-08-04T00:52:02.273Z,930.12
2017-08-04T00:52:14.633Z,930.12
2017-08-04T00:52:28.125Z,930.14
2017-08-04T00:52:41.543Z,930.15
2017-08-04T00:52:54.978Z,930.11
2017-08-04T00:53:07.396Z,930.15
2017-08-04T00:53:20.836Z,930.13
2017-08-04T00:53:33.799Z,930.12
2017-08-04T00:53:47.215Z,930.15
2017-08-04T00:54:00.686Z,930.15
2017-08-04T00:54:14.108Z,930.14
2017-08-04T00:54:27.007Z,930.11
2017-08-04T00:54:38.910Z,930.11
2017-08-04T00:54:52.365Z,930.14
2017-08-04T00:55:05.853Z,930.15
2017-08-04T00:55:19.296Z,930.16
2017-08-04T00:55:32.237Z,930.14
2017-08-04T00:55:45.114Z,930.13
2017-08-04T00:55:57.524Z,930.1
2017-08-04T00:56:10.971Z,930.1
2017-08-04T00:56:23.911Z,930.12
2017-08-04T00:56:37.431Z,930.13
2017-08-04T00:56:50.879Z,930.16
2017-08-04T00:57:04.620Z,930.13
2017-08-04T00:57:18.080Z,930.12
2017-08-04T00:57:31.562Z,930.15
2017-08-04T00:57:45.031Z,930.14
2017-08-04T00:57:58.493Z,930.17
2017-08-04T00:58:10.865Z,930.19
2017-08-04T00:58:24.316Z,930.16
2017-08-04T00:58:37.702Z,930.13
2017-08-04T00:58:51.168Z,930.17
2017-08-04T00:59:04.648Z,930.16
2017-08-04T00:59:18.041Z,930.17
2017-08-04T00:59:30.983Z,930.18
2017-08-04T00:59:44.437Z,930.21
2017-08-04T00:59:57.864Z,930.16
2017-08-04T01:00:10.766Z,930.18
2017-08-04T01:00:24.182Z,930.21
2017-08-04T01:00:37.072Z,930.18
2017-08-04T01:00:49.984Z,930.18
2017-08-04T01:01:03.405Z,930.21
2017-08-04T01:01:16.898Z,930.22
2017-08-04T01:01:30.394Z,930.25
2017-08-04T01:01:43.315Z,930.24
2017-08-04T01:01:56.757Z,930.24
2017-08-04T01:02:09.921Z,930.22
2017-08-04T01:02:22.845Z,930.22
2017-08-04T01:02:36.326Z,930.25
2017-08-04T01:02:49.757Z,930.23
2017-08-04T01:03:03.209Z,930.24
2017-08-04T01:03:16.658Z,930.24
2017-08-04T01:03:30.100Z,930.23
2017-08-04T01:03:43.551Z,930.24
2017-08-04T01:03:56.492Z,930.26
2017-08-04T01:04:09.969Z,930.21
2017-08-04T01:04:23.448Z,930.21
2017-08-04T01:04:36.895Z,930.24
2017-08-04T01:04:49.845Z,930.23
2017-08-04T01:05:02.774Z,930.21
2017-08-04T01:05:16.216Z,930.25
2017-08-04T01:05:29.668Z,930.24
2017-08-04T01:05:42.134Z,930.26
2017-08-04T01:05:55.611Z,930.25
2017-08-04T01:06:08.555Z,930.22
2017-08-04T01:06:21.986Z,930.28
2017-08-04T01:06:34.882Z,930.24
2017-08-04T01:06:48.282Z,930.27
2017-08-04T01:07:01.756Z,930.27
2017-08-04T01:07:15.237Z,930.25
2017-08-04T01:07:28.111Z,930.29
2017-08-04T01:07:41.546Z,930.3
2017-08-04T01:07:55.002Z,930.28
2017-08-04T01:08:08.419Z,930.32
2017-08-04T01:08:21.895Z,930.31
2017-08-04T01:08:35.392Z,930.32
2017-08-04T01:08:48.304Z,930.31
2017-08-04T01:09:01.743Z,930.27
2017-08-04T01:09:14.657Z,930.32
2017-08-04T01:09:28.124Z,930.33
2017-08-04T01:09:41.612Z,930.32
2017-08-04T01:09:55.038Z,930.31
2017-08-04T01:10:07.474Z,930.32
2017-08-04T01:10:20.987Z,930.33
2017-08-04T01:10:34.426Z,930.33
2017-08-04T01:10:47.386Z,930.3
2017-08-04T01:11:00.287Z,930.32
2017-08-04T01:11:13.727Z,930.33
2017-08-04T01:11:27.175Z,930.3
2017-08-04T01:11:40.147Z,930.28
2017-08-04T01:11:53.682Z,930.35
2017-08-04T01:12:06.587Z,930.32
2017-08-04T01:12:20.090Z,930.34
2017-08-04T01:12:33.488Z,930.32
2017-08-04T01:12:46.936Z,930.31
2017-08-04T01:12:59.838Z,930.32
2017-08-04T01:13:12.760Z,930.36
2017-08-04T01:13:26.216Z,930.33
2017-08-04T01:13:39.140Z,930.32
2017-08-04T01:13:52.605Z,930.32
2017-08-04T01:14:06.026Z,930.37
2017-08-04T01:14:18.903Z,930.34
2017-08-04T01:14:31.793Z,930.36
2017-08-04T01:14:44.175Z,930.34
2017-08-04T01:14:57.661Z,930.37
2017-08-04T01:15:11.139Z,930.37
2017-08-04T01:15:24.059Z,930.38
2017-08-04T01:15:37.536Z,930.35
2017-08-04T01:15:50.444Z,930.34
2017-08-04T01:16:03.902Z,930.37
2017-08-04T01:16:17.381Z,930.37
2017-08-04T01:16:30.822Z,930.38
2017-08-04T01:16:44.324Z,930.37
2017-08-04T01:16:57.795Z,930.37
2017-08-04T01:17:11.271Z,930.36
2017-08-04T01:17:24.302Z,930.36
2017-08-04T01:17:37.294Z,930.36
2017-08-04T01:17:50.787Z,930.39
2017-08-04T01:18:04.240Z,930.38
2017-08-04T01:18:17.688Z,930.39
2017-08-04T01:18:31.179Z,930.4
2017-08-04T01:18:44.139Z,930.35
2017-08-04T01:18:57.562Z,930.4
2017-08-04T01:19:10.454Z,930.36
2017-08-04T01:19:23.877Z,930.39
2017-08-04T01:19:37.339Z,930.41
2017-08-04T01:19:50.716Z,930.36
2017-08-04T01:20:04.212Z,930.41
2017-08-04T01:20:17.690Z,930.39
2017-08-04T01:20:31.181Z,930.37
2017-08-04T01:20:44.647Z,930.41
2017-08-04T01:20:57.530Z,930.41
2017-08-04T01:21:09.907Z,930.38
2017-08-04T01:21:23.433Z,930.42
2017-08-04T01:21:36.858Z,930.4
2017-08-04T01:21:49.827Z,930.43
2017-08-04T01:22:03.242Z,930.44
2017-08-04T01:22:16.683Z,930.43
2017-08-04T01:22:30.121Z,930.42
2017-08-04T01:22:43.628Z,930.44
2017-08-04T01:22:57.072Z,930.43
2017-08-04T01:23:10.530Z,930.43
2017-08-04T01:23:24.005Z,930.44
2017-08-04T01:23:37.416Z,930.43
2017-08-04T01:23:50.904Z,930.45
2017-08-04T01:24:04.377Z,930.43
2017-08-04T01:24:17.289Z,930.45
2017-08-04T01:24:30.704Z,930.45
2017-08-04T01:24:44.148Z,930.44
2017-08-04T01:24:57.566Z,930.49
2017-08-04T01:25:11.024Z,930.43
2017-08-04T01:25:24.511Z,930.45
2017-08-04T01:25:38.023Z,930.43
2017-08-04T01:25:50.931Z,930.47
2017-08-04T01:26:03.882Z,930.45
2017-08-04T01:26:16.824Z,930.45
2017-08-04T01:26:30.279Z,930.46
2017-08-04T01:26:42.693Z,930.49
2017-08-04T01:26:55.590Z,930.44
2017-08-04T01:27:09.059Z,930.45
2017-08-04T01:27:22.744Z,930.46
2017-08-04T01:27:35.631Z,930.46
2017-08-04T01:27:49.084Z,930.43
2017-08-04T01:28:02.562Z,930.43
2017-08-04T01:28:15.974Z,930.43
2017-08-04T01:28:29.390Z,930.43
2017-08-04T01:28:42.866Z,930.44
2017-08-04T01:28:56.315Z,930.43
2017-08-04T01:29:08.706Z,930.44
2017-08-04T01:29:22.132Z,930.45
2017-08-04T01:29:35.833Z,930.45
2017-08-04T01:29:48.752Z,930.44
2017-08-04T01:30:01.763Z,930.43
2017-08-04T01:30:14.689Z,930.43
2017-08-04T01:30:28.156Z,930.46
2017-08-04T01:30:41.606Z,930.43
2017-08-04T01:30:54.526Z,930.45
2017-08-04T01:31:08.011Z,930.45
2017-08-04T01:31:21.480Z,930.42
2017-08-04T01:31:34.987Z,930.47
2017-08-04T01:31:48.407Z,930.47
2017-08-04T01:32:01.304Z,930.46
2017-08-04T01:32:14.809Z,930.46
2017-08-04T01:32:28.403Z,930.49
2017-08-04T01:32:41.861Z,930.43
2017-08-04T01:32:55.361Z,930.45
2017-08-04T01:33:08.271Z,930.43
2017-08-04T01:33:21.736Z,930.45
2017-08-04T01:33:35.119Z,930.48
2017-08-04T01:33:47.987Z,930.44
2017-08-04T01:34:01.435Z,930.49
2017-08-04T01:34:14.862Z,930.43
2017-08-04T01:34:27.240Z,930.45
2017-08-04T01:34:40.649Z,930.47
2017-08-04T01:34:54.074Z,930.46
2017-08-04T01:35:07.538Z,930.48
2017-08-04T01:35:21.005Z,930.47
2017-08-04T01:35:34.543Z,930.45
2017-08-04T01:35:47.491Z,930.5
2017-08-04T01:36:00.950Z,930.47
2017-08-04T01:36:14.446Z,930.49
2017-08-04T01:36:27.963Z,930.48
2017-08-04T01:36:41.449Z,930.53
2017-08-04T01:36:54.415Z,930.51
2017-08-04T01:37:07.384Z,930.53
2017-08-04T01:37:20.791Z,930.52
2017-08-04T01:37:34.259Z,930.53
2017-08-04T01:37:47.745Z,930.52
2017-08-04T01:38:01.185Z,930.47
2017-08-04T01:38:14.580Z,930.53
2017-08-04T01:38:28.114Z,930.5
2017-08-04T01:38:41.070Z,930.47
2017-08-04T01:38:54.461Z,930.5
2017-08-04T01:39:07.936Z,930.49
2017-08-04T01:39:21.412Z,930.5
2017-08-04T01:39:34.412Z,930.46
2017-08-04T01:39:47.877Z,930.51
2017-08-04T01:40:01.318Z,930.48
2017-08-04T01:40:14.797Z,930.47
2017-08-04T01:40:27.726Z,930.51
2017-08-04T01:40:41.237Z,930.46
2017-08-04T01:40:54.673Z,930.49
2017-08-04T01:41:07.521Z,930.53
2017-08-04T01:41:20.960Z,930.46
2017-08-04T01:41:34.456Z,930.48
2017-08-04T01:41:47.915Z,930.48
2017-08-04T01:42:01.323Z,930.46
2017-08-04T01:42:14.713Z,930.49
2017-08-04T01:42:27.671Z,930.46
2017-08-04T01:42:40.102Z,930.51
2017-08-04T01:42:53.540Z,930.5
2017-08-04T01:43:06.419Z,930.49
2017-08-04T01:43:19.345Z,930.51
2017-08-04T01:43:31.733Z,930.53
2017-08-04T01:43:44.604Z,930.52
2017-08-04T01:43:58.009Z,930.5
2017-08-04T01:44:11.426Z,930.52
2017-08-04T01:44:24.375Z,930.46
2017-08-04T01:44:37.921Z,930.51
2017-08-04T01:44:51.352Z,930.46
2017-08-04T01:45:04.244Z,930.49
2017-08-04T01:45:17.724Z,930.5
2017-08-04T01:45:31.168Z,930.48
2017-08-04T01:45:44.588Z,930.53
2017-08-04T01:45:57.462Z,930.48
2017-08-04T01:46:09.392Z,930.45
2017-08-04T01:46:22.323Z,930.47
2017-08-04T01:46:35.816Z,930.5
2017-08-04T01:46:49.183Z,930.5
2017-08-04T01:47:02.631Z,930.51
2017-08-04T01:47:16.109Z,930.5
2017-08-04T01:47:30.319Z,930.51
2017-08-04T01:47:43.264Z,930.47
2017-08-04T01:47:55.736Z,930.49
2017-08-04T01:48:08.693Z,930.5
2017-08-04T01:48:22.152Z,930.51
2017-08-04T01:48:35.591Z,930.49
2017-08-04T01:48:48.989Z,930.48
2017-08-04T01:49:02.414Z,930.47
2017-08-04T01:49:15.887Z,930.48
2017-08-04T01:49:29.440Z,930.51
2017-08-04T01:49:41.323Z,930.51
2017-08-04T01:49:54.797Z,930.48
2017-08-04T01:50:07.725Z,930.5
2017-08-04T01:50:21.170Z,930.49
2017-08-04T01:50:34.623Z,930.53
2017-08-04T01:50:46.451Z,930.51
2017-08-04T01:50:59.306Z,930.48
2017-08-04T01:51:12.791Z,930.52
2017-08-04T01:51:26.255Z,930.49
2017-08-04T01:51:39.689Z,930.49
2017-08-04T01:51:53.195Z,930.48
2017-08-04T01:52:06.677Z,930.5
2017-08-04T01:52:20.241Z,930.51
2017-08-04T01:52:33.692Z,930.5
2017-08-04T01:52:47.147Z,930.51
2017-08-04T01:53:00.637Z,930.53
2017-08-04T01:53:14.161Z,930.52
2017-08-04T01:53:27.576Z,930.55
2017-08-04T01:53:41.068Z,930.54
2017-08-04T01:53:54.091Z,930.52
2017-08-04T01:54:06.974Z,930.49
2017-08-04T01:54:19.963Z,930.5
2017-08-04T01:54:33.344Z,930.5
2017-08-04T01:54:46.310Z,930.5
2017-08-04T01:54:59.191Z,930.51
2017-08-04T01:55:12.633Z,930.5
2017-08-04T01:55:25.572Z,930.52
2017-08-04T01:55:39.017Z,930.55
2017-08-04T01:55:52.471Z,930.52
2017-08-04T01:56:05.389Z,930.52
2017-08-04T01:56:18.299Z,930.52
2017-08-04T01:56:31.728Z,930.53
2017-08-04T01:56:45.149Z,930.52
2017-08-04T01:56:58.590Z,930.51
2017-08-04T01:57:11.570Z,930.5
2017-08-04T01:57:24.492Z,930.53
2017-08-04T01:57:38.137Z,930.54
2017-08-04T01:57:51.081Z,930.52
2017-08-04T01:58:04.540Z,930.53
2017-08-04T01:58:17.923Z,930.51
2017-08-04T01:58:31.393Z,930.53
2017-08-04T01:58:44.793Z,930.52
2017-08-04T01:58:57.747Z,930.5
2017-08-04T01:59:10.663Z,930.53
2017-08-04T01:59:24.087Z,930.5
2017-08-04T01:59:37.516Z,930.52
2017-08-04T01:59:49.933Z,930.53
2017-08-04T02:00:03.414Z,930.51
2017-08-04T02:00:16.875Z,930.52
2017-08-04T02:00:30.320Z,930.53
2017-08-04T02:00:43.256Z,930.5
2017-08-04T02:00:56.182Z,930.53
2017-08-04T02:01:09.566Z,930.52
2017-08-04T02:01:22.475Z,930.54
2017-08-04T02:01:35.960Z,930.52
2017-08-04T02:01:49.387Z,930.52
2017-08-04T02:02:02.294Z,930.53
2017-08-04T02:02:15.239Z,930.53
2017-08-04T02:02:28.836Z,930.52
2017-08-04T02:02:42.314Z,930.51
2017-08-04T02:02:55.802Z,930.54
2017-08-04T02:03:08.708Z,930.58
2017-08-04T02:03:22.228Z,930.51
2017-08-04T02:03:35.124Z,930.53
2017-08-04T02:03:48.053Z,930.52
2017-08-04T02:04:00.981Z,930.5
2017-08-04T02:04:13.928Z,930.49
2017-08-04T02:04:27.393Z,930.48
2017-08-04T02:04:40.839Z,930.5
2017-08-04T02:04:54.290Z,930.49
2017-08-04T02:05:07.187Z,930.5
2017-08-04T02:05:20.661Z,930.46
2017-08-04T02:05:34.178Z,930.51
2017-08-04T02:05:47.670Z,930.46
2017-08-04T02:06:01.086Z,930.51
2017-08-04T02:06:14.557Z,930.48
2017-08-04T02:06:28.027Z,930.51
2017-08-04T02:06:41.426Z,930.52
2017-08-04T02:06:54.369Z,930.49
2017-08-04T02:07:07.244Z,930.49
2017-08-04T02:07:20.729Z,930.48
2017-08-04T02:07:33.749Z,930.5
2017-08-04T02:07:47.260Z,930.53
2017-08-04T02:08:00.723Z,930.49
2017-08-04T02:08:13.624Z,930.48
2017-08-04T02:08:27.069Z,930.47
2017-08-04T02:08:40.545Z,930.48
2017-08-04T02:08:54.008Z,930.46
2017-08-04T02:09:07.481Z,930.45
2017-08-04T02:09:20.870Z,930.45
2017-08-04T02:09:33.728Z,930.44
2017-08-04T02:09:46.705Z,930.43
2017-08-04T02:10:00.178Z,930.43
2017-08-04T02:10:13.615Z,930.46
2017-08-04T02:10:25.436Z,930.44
2017-08-04T02:10:38.885Z,930.41
2017-08-04T02:10:52.404Z,930.43
2017-08-04T02:11:05.320Z,930.43
2017-08-04T02:11:18.833Z,930.41
2017-08-04T02:11:32.306Z,930.41
2017-08-04T02:11:45.728Z,930.41
2017-08-04T02:11:59.230Z,930.4
2017-08-04T02:12:12.685Z,930.41
2017-08-04T02:12:26.135Z,930.39
2017-08-04T02:12:39.585Z,930.38
2017-08-04T02:12:53.075Z,930.39
2017-08-04T02:13:05.987Z,930.38
2017-08-04T02:13:19.453Z,930.37
2017-08-04T02:13:32.919Z,930.4
2017-08-04T02:13:46.406Z,930.41
2017-08-04T02:13:58.780Z,930.38
2017-08-04T02:14:11.698Z,930.39
2017-08-04T02:14:24.610Z,930.39
2017-08-04T02:14:38.050Z,930.38
2017-08-04T02:14:51.506Z,930.43
2017-08-04T02:15:03.954Z,930.37
2017-08-04T02:15:17.383Z,930.38
2017-08-04T02:15:30.819Z,930.4
2017-08-04T02:15:44.287Z,930.38
2017-08-04T02:15:57.744Z,930.42
2017-08-04T02:16:11.166Z,930.39
2017-08-04T02:16:24.689Z,930.39
2017-08-04T02:16:37.559Z,930.4
2017-08-04T02:16:49.966Z,930.43
2017-08-04T02:17:03.455Z,930.42
2017-08-04T02:17:16.352Z,930.42
2017-08-04T02:17:29.828Z,930.39
2017-08-04T02:17:43.474Z,930.43
2017-08-04T02:17:56.922Z,930.44
2017-08-04T02:18:10.375Z,930.42
2017-08-04T02:18:23.805Z,930.43
2017-08-04T02:18:37.228Z,930.45
2017-08-04T02:18:50.649Z,930.43
2017-08-04T02:19:04.100Z,930.42
2017-08-04T02:19:17.558Z,930.43
2017-08-04T02:19:31.013Z,930.45
2017-08-04T02:19:44.494Z,930.43
2017-08-04T02:19:57.384Z,930.43
2017-08-04T02:20:10.049Z,930.46
2017-08-04T02:20:23.475Z,930.47
2017-08-04T02:20:36.866Z,930.49
2017-08-04T02:20:50.319Z,930.49
2017-08-04T02:21:03.238Z,930.52
2017-08-04T02:21:16.635Z,930.53
2017-08-04T02:21:30.048Z,930.51
2017-08-04T02:21:42.959Z,930.54
2017-08-04T02:21:55.795Z,930.53
2017-08-04T02:22:08.663Z,930.51
2017-08-04T02:22:22.052Z,930.53
2017-08-04T02:22:35.449Z,930.56
2017-08-04T02:22:48.079Z,930.52
2017-08-04T02:23:01.538Z,930.55
2017-08-04T02:23:14.437Z,930.56
2017-08-04T02:23:27.835Z,930.58
2017-08-04T02:23:41.251Z,930.53
2017-08-04T02:23:54.147Z,930.52
2017-08-04T02:24:07.625Z,930.52
2017-08-04T02:24:20.534Z,930.51
2017-08-04T02:24:33.973Z,930.49
2017-08-04T02:24:46.912Z,930.5
2017-08-04T02:25:00.309Z,930.49
2017-08-04T02:25:13.210Z,930.49
2017-08-04T02:25:26.644Z,930.51
2017-08-04T02:25:39.004Z,930.5
2017-08-04T02:25:52.428Z,930.48
2017-08-04T02:26:05.324Z,930.47
2017-08-04T02:26:18.705Z,930.49
2017-08-04T02:26:32.168Z,930.46
2017-08-04T02:26:45.154Z,930.46
2017-08-04T02:26:58.561Z,930.49
2017-08-04T02:27:10.406Z,930.49
2017-08-04T02:27:23.294Z,930.46
2017-08-04T02:27:35.663Z,930.48
2017-08-04T02:27:49.321Z,930.52
2017-08-04T02:28:02.247Z,930.48
2017-08-04T02:28:14.632Z,930.47
2017-08-04T02:28:27.469Z,930.53
2017-08-04T02:28:40.410Z,930.49
2017-08-04T02:28:53.857Z,930.51
2017-08-04T02:29:07.261Z,930.49
2017-08-04T02:29:20.731Z,930.51
2017-08-04T02:29:34.176Z,930.49
2017-08-04T02:29:47.597Z,930.5
2017-08-04T02:30:00.987Z,930.49
2017-08-04T02:30:13.835Z,930.52
2017-08-04T02:30:27.261Z,930.5
2017-08-04T02:30:40.761Z,930.49
2017-08-04T02:30:54.217Z,930.49
2017-08-04T02:31:07.655Z,930.5
2017-08-04T02:31:21.099Z,930.49
2017-08-04T02:31:33.993Z,930.49
2017-08-04T02:31:47.345Z,930.51
2017-08-04T02:32:00.776Z,930.5
2017-08-04T02:32:14.184Z,930.49
2017-08-04T02:32:27.652Z,930.5
2017-08-04T02:32:41.076Z,930.48
2017-08-04T02:32:55.011Z,930.48
2017-08-04T02:33:08.473Z,930.47
2017-08-04T02:33:21.905Z,930.5
2017-08-04T02:33:35.308Z,930.42
2017-08-04T02:33:48.247Z,930.46
2017-08-04T02:34:01.153Z,930.46
2017-08-04T02:34:18.261Z,930.47
2017-08-04T02:34:32.205Z,930.42
2017-08-04T02:34:46.644Z,930.44
2017-08-04T02:34:59.620Z,930.43
2017-08-04T02:35:13.044Z,930.4
2017-08-04T02:35:26.530Z,930.44
2017-08-04T02:35:40.156Z,930.39
2017-08-04T02:35:56.560Z,930.4
2017-08-04T02:36:33.671Z,930.41
2017-08-04T02:36:47.082Z,930.4
2017-08-04T02:37:01.304Z,930.38
2017-08-04T02:37:19.857Z,930.39
2017-08-04T02:37:33.926Z,930.35
2017-08-04T02:37:47.383Z,930.34
2017-08-04T02:38:00.849Z,930.34
2017-08-04T02:38:14.229Z,930.34
2017-08-04T02:38:27.128Z,930.36
2017-08-04T02:38:47.895Z,930.36
2017-08-04T02:39:01.284Z,930.35
2017-08-04T02:39:14.696Z,930.35
2017-08-04T02:39:27.609Z,930.36
2017-08-04T02:40:05.673Z,930.35
2017-08-04T02:40:19.129Z,930.33
2017-08-04T02:40:32.537Z,930.36
2017-08-04T02:40:57.579Z,930.35
2017-08-04T02:41:10.987Z,930.33
2017-08-04T02:41:24.392Z,930.34
2017-08-04T02:42:08.449Z,930.35
2017-08-04T02:42:21.926Z,930.33
2017-08-04T02:42:54.569Z,930.36
2017-08-04T02:43:10.702Z,930.33
2017-08-04T02:43:55.263Z,930.33
2017-08-04T02:44:08.688Z,930.31
2017-08-04T02:44:34.924Z,930.29
2017-08-04T02:44:48.638Z,930.33
2017-08-04T02:45:02.031Z,930.34
2017-08-04T02:45:15.029Z,930.3
2017-08-04T02:45:27.959Z,930.32
2017-08-04T02:46:18.314Z,930.28
2017-08-04T02:46:31.246Z,930.31
2017-08-04T02:47:10.400Z,930.27
2017-08-04T02:47:23.833Z,930.3
2017-08-04T02:47:38.004Z,930.31
2017-08-04T02:47:51.460Z,930.32
2017-08-04T02:48:06.008Z,930.32
2017-08-04T02:48:20.901Z,930.33
2017-08-04T02:48:33.847Z,930.36
2017-08-04T02:48:50.041Z,930.36
2017-08-04T02:49:03.506Z,930.32
2017-08-04T02:49:16.743Z,930.33
2017-08-04T02:49:30.232Z,930.36
2017-08-04T02:49:43.133Z,930.34
2017-08-04T02:49:56.572Z,930.36
2017-08-04T02:50:12.150Z,930.36
2017-08-04T02:50:25.078Z,930.34